Terminal Aerodrome Forecast
Issued by NWS Corpus Christi, TX

Home | Current Version | Previous Version | Text Only | Print | Product List | Glossary On
Versions: 1 2 3 4 5 6 7 8 9 10 11 12 13 14 15 16 17 18 19 20
466
FTUS44 KCRP 261120
TAFCRP
TAF
KCRP 261120Z 2612/2712 VRB05KT P6SM VCSH SCT020 BKN250
      TEMPO 2612/2616 5SM -SHRA BR BKN020
     FM261600 07012KT P6SM VCTS BKN035CB
      TEMPO 2616/2620 5SM TSRA OVC030CB
     FM262000 09015G20KT P6SM VCSH SCT040 BKN250
     FM270200 VRB06KT P6SM VCSH SCT025 BKN050=

USA.gov is the U.S. government's official web portal to all federal, state and local government web resources and services.